createdAt,value
2023-02-06T00:02:16.206Z,96376.00
2023-02-06T00:04:42.572Z,96382.78
2023-02-06T00:07:08.947Z,96370.00
2023-02-06T00:09:35.344Z,96382.81
2023-02-06T00:12:01.705Z,96389.28
2023-02-06T00:14:28.062Z,96387.88
2023-02-06T00:16:54.424Z,96378.78
2023-02-06T00:19:20.825Z,96385.13
2023-02-06T00:21:47.290Z,96382.81
2023-02-06T00:24:13.670Z,96376.19
2023-02-06T00:26:40.010Z,96387.44
2023-02-06T00:29:06.385Z,96391.28
2023-02-06T00:31:32.756Z,96390.81
2023-02-06T00:33:59.164Z,96378.50
2023-02-06T00:36:25.567Z,96390.03
2023-02-06T00:38:51.933Z,96379.56
2023-02-06T00:41:18.321Z,96387.56
2023-02-06T00:43:44.706Z,96373.25
2023-02-06T00:46:11.152Z,96385.28
2023-02-06T00:48:37.524Z,96378.19
2023-02-06T00:51:03.894Z,96383.41
2023-02-06T00:53:30.278Z,96383.56
2023-02-06T00:55:56.658Z,96375.56
2023-02-06T00:58:23.095Z,96366.94
2023-02-06T01:00:49.493Z,96378.66
2023-02-06T01:03:15.862Z,96370.16
2023-02-06T01:05:42.219Z,96385.28
2023-02-06T01:08:08.595Z,96370.47
2023-02-06T01:10:34.968Z,96368.00
2023-02-06T01:13:01.318Z,96375.72
2023-02-06T01:15:27.683Z,96375.56
2023-02-06T01:17:54.112Z,96372.31
2023-02-06T01:20:20.489Z,96379.41
2023-02-06T01:22:46.837Z,96379.72
2023-02-06T01:25:13.232Z,96379.56
2023-02-06T01:27:39.602Z,96384.03
2023-02-06T01:30:05.971Z,96399.28
2023-02-06T01:32:32.361Z,96396.06
2023-02-06T01:34:58.737Z,96402.69
2023-02-06T01:37:25.123Z,96391.13
2023-02-06T01:39:51.496Z,96405.25
2023-02-06T01:42:17.914Z,96409.59
2023-02-06T01:44:44.271Z,96407.28
2023-02-06T01:47:10.712Z,96410.19
2023-02-06T01:49:37.102Z,96418.69
2023-02-06T01:52:03.461Z,96401.28
2023-02-06T01:54:29.831Z,96413.91
2023-02-06T01:56:56.205Z,96409.91
2023-02-06T01:59:22.593Z,96401.75
2023-02-06T02:01:48.993Z,96396.34
2023-02-06T02:04:15.385Z,96406.53
2023-02-06T02:06:41.750Z,96405.91
2023-02-06T02:09:08.109Z,96386.81
2023-02-06T02:11:34.518Z,96377.25
2023-02-06T02:14:00.870Z,96386.66
2023-02-06T02:16:27.276Z,96386.19
2023-02-06T02:18:53.685Z,96374.63
2023-02-06T02:21:20.043Z,96371.09
2023-02-06T02:23:46.426Z,96372.94
2023-02-06T02:26:12.793Z,96373.25
2023-02-06T02:28:39.170Z,96367.41
2023-02-06T02:31:05.562Z,96355.22
2023-02-06T02:33:31.919Z,96349.53
2023-02-06T02:35:58.382Z,96352.00
2023-02-06T02:38:24.745Z,96354.28
2023-02-06T02:40:51.097Z,96354.75
2023-02-06T02:43:17.482Z,96353.06
2023-02-06T02:45:43.927Z,96356.44
2023-02-06T02:48:10.337Z,96360.75
2023-02-06T02:50:36.689Z,96351.38
2023-02-06T02:53:03.053Z,96335.19
2023-02-06T02:55:29.473Z,96336.56
2023-02-06T02:57:55.887Z,96318.72
2023-02-06T03:00:22.239Z,96337.66
2023-02-06T03:02:48.603Z,96331.03
2023-02-06T03:05:14.986Z,96326.88
2023-02-06T03:07:41.363Z,96314.41
2023-02-06T03:10:07.810Z,96313.31
2023-02-06T03:12:34.169Z,96313.16
2023-02-06T03:15:00.564Z,96301.00
2023-02-06T03:17:26.957Z,96315.63
2023-02-06T03:19:53.345Z,96314.41
2023-02-06T03:22:19.712Z,96314.56
2023-02-06T03:24:46.083Z,96322.56
2023-02-06T03:27:12.458Z,96319.03
2023-02-06T03:29:38.817Z,96322.41
2023-02-06T03:32:05.282Z,96336.56
2023-02-06T03:34:31.651Z,96318.41
2023-02-06T03:36:58.021Z,96327.66
2023-02-06T03:39:24.398Z,96329.19
2023-02-06T03:41:50.761Z,96312.25
2023-02-06T03:44:17.128Z,96310.22
2023-02-06T03:46:43.486Z,96315.00
2023-02-06T03:49:09.850Z,96317.94
2023-02-06T03:51:36.217Z,96314.53
2023-02-06T03:54:02.574Z,96308.69
2023-02-06T03:56:28.995Z,96316.38
2023-02-06T03:58:55.365Z,96306.84
2023-02-06T04:01:21.809Z,96310.69
2023-02-06T04:03:48.208Z,96313.63
2023-02-06T04:06:14.591Z,96315.78
2023-02-06T04:08:40.946Z,96320.38
2023-02-06T04:11:07.384Z,96323.00
2023-02-06T04:13:33.749Z,96321.78
2023-02-06T04:16:00.111Z,96326.41
2023-02-06T04:18:26.475Z,96324.88
2023-02-06T04:20:52.949Z,96332.09
2023-02-06T04:23:19.307Z,96334.25
2023-02-06T04:25:45.650Z,96338.88
2023-02-06T04:28:12.058Z,96341.19
2023-02-06T04:30:38.513Z,96346.41
2023-02-06T04:33:04.944Z,96351.50
2023-02-06T04:35:31.313Z,96352.59
2023-02-06T04:37:57.688Z,96345.16
2023-02-06T04:40:24.069Z,96349.66
2023-02-06T04:42:50.427Z,96360.91
2023-02-06T04:45:16.809Z,96351.66
2023-02-06T04:47:43.206Z,96362.28
2023-02-06T04:50:09.583Z,96364.75
2023-02-06T04:52:35.980Z,96376.56
2023-02-06T04:55:02.389Z,96385.16
2023-02-06T04:57:28.793Z,96380.41
2023-02-06T04:59:55.164Z,96375.03
2023-02-06T05:02:21.559Z,96373.38
2023-02-06T05:04:47.933Z,96369.50
2023-02-06T05:07:14.284Z,96372.75
2023-02-06T05:09:40.673Z,96361.34
2023-02-06T05:12:07.032Z,96370.59
2023-02-06T05:14:33.398Z,96362.00
2023-02-06T05:16:59.788Z,96362.16
2023-02-06T05:19:26.137Z,96376.94
2023-02-06T05:21:52.508Z,96378.00
2023-02-06T05:24:18.871Z,96380.16
2023-02-06T05:26:45.249Z,96381.09
2023-02-06T05:29:11.661Z,96389.88
2023-02-06T05:31:38.093Z,96386.00
2023-02-06T05:34:04.535Z,96390.94
2023-02-06T05:36:30.889Z,96382.63
2023-02-06T05:38:57.285Z,96367.38
2023-02-06T05:41:23.645Z,96377.41
2023-02-06T05:43:49.996Z,96378.44
2023-02-06T05:46:16.400Z,96378.16
2023-02-06T05:48:42.810Z,96368.09
2023-02-06T05:51:09.169Z,96380.00
2023-02-06T05:53:35.535Z,96378.00
2023-02-06T05:56:01.904Z,96371.53
2023-02-06T05:58:28.285Z,96370.59
2023-02-06T06:00:54.663Z,96381.97
2023-02-06T06:03:21.057Z,96373.94
2023-02-06T06:05:47.444Z,96387.81
2023-02-06T06:08:13.817Z,96378.75
2023-02-06T06:10:40.205Z,96364.28
2023-02-06T06:13:06.558Z,96383.50
2023-02-06T06:15:32.917Z,96380.91
2023-02-06T06:17:59.269Z,96377.19
2023-02-06T06:20:25.663Z,96373.03
2023-02-06T06:22:52.113Z,96372.09
2023-02-06T06:25:18.498Z,96376.25
2023-02-06T06:27:44.888Z,96376.84
2023-02-06T06:30:11.296Z,96363.13
2023-02-06T06:32:37.670Z,96355.25
2023-02-06T06:35:04.063Z,96358.50
2023-02-06T06:37:30.457Z,96368.34
2023-02-06T06:39:56.852Z,96365.25
2023-02-06T06:42:23.222Z,96362.81
2023-02-06T06:44:49.607Z,96366.78
2023-02-06T06:47:15.966Z,96365.69
2023-02-06T06:49:42.340Z,96371.69
2023-02-06T06:52:16.314Z,96372.84
2023-02-06T06:54:52.328Z,96370.97
2023-02-06T06:57:19.038Z,96368.06
2023-02-06T06:59:45.416Z,96368.25
2023-02-06T07:02:11.769Z,96355.59
2023-02-06T07:04:38.149Z,96360.81
2023-02-06T07:07:04.538Z,96356.78
2023-02-06T07:09:30.934Z,96358.94
2023-02-06T07:11:57.290Z,96374.53
2023-02-06T07:14:23.743Z,96369.16
2023-02-06T07:16:50.123Z,96380.88
2023-02-06T07:19:16.490Z,96373.16
2023-02-06T07:21:43.962Z,96373.47
2023-02-06T07:24:10.333Z,96370.72
2023-02-06T07:26:36.726Z,96371.97
2023-02-06T07:29:03.176Z,96374.28
2023-02-06T07:31:29.578Z,96371.38
2023-02-06T07:33:55.978Z,96367.06
2023-02-06T07:36:22.362Z,96370.13
2023-02-06T07:38:48.791Z,96374.75
2023-02-06T07:41:15.153Z,96369.59
2023-02-06T07:43:41.525Z,96360.22
2023-02-06T07:46:08.014Z,96360.53
2023-02-06T07:48:34.494Z,96367.06
2023-02-06T07:51:00.865Z,96368.59
2023-02-06T07:53:27.237Z,96370.59
2023-02-06T07:55:53.690Z,96365.19
2023-02-06T07:58:20.054Z,96365.97
2023-02-06T08:00:46.426Z,96372.75
2023-02-06T08:03:12.826Z,96365.50
2023-02-06T08:05:39.284Z,96372.59
2023-02-06T08:08:05.789Z,96370.44
2023-02-06T08:10:32.183Z,96367.84
2023-02-06T08:12:58.583Z,96373.19
2023-02-06T08:15:24.973Z,96369.97
2023-02-06T08:17:51.328Z,96389.47
2023-02-06T08:20:17.717Z,96389.97
2023-02-06T08:22:44.084Z,96386.16
2023-02-06T08:25:10.473Z,96378.31
2023-02-06T08:27:36.845Z,96384.31
2023-02-06T08:30:03.219Z,96385.25
2023-02-06T08:32:29.586Z,96383.09
2023-02-06T08:34:55.978Z,96377.88
2023-02-06T08:37:22.365Z,96387.13
2023-02-06T08:39:48.746Z,96382.03
2023-02-06T08:42:15.127Z,96375.41
2023-02-06T08:44:41.536Z,96384.34
2023-02-06T08:47:10.352Z,96383.56
2023-02-06T08:49:37.022Z,96384.66
2023-02-06T08:52:03.444Z,96380.94
2023-02-06T08:54:29.866Z,96377.06
2023-02-06T08:56:56.337Z,96381.56
2023-02-06T08:59:24.266Z,96388.50
2023-02-06T09:01:50.644Z,96389.09
2023-02-06T09:04:17.023Z,96394.34
2023-02-06T09:06:43.410Z,96397.44
2023-02-06T09:09:09.816Z,96384.88
2023-02-06T09:11:36.267Z,96385.94
2023-02-06T09:14:02.672Z,96381.00
2023-02-06T09:16:29.048Z,96384.41
2023-02-06T09:18:55.424Z,96392.78
2023-02-06T09:21:21.818Z,96390.88
2023-02-06T09:23:48.216Z,96386.56
2023-02-06T09:26:14.651Z,96384.47
2023-02-06T09:28:41.036Z,96395.72
2023-02-06T09:31:07.552Z,96391.06
2023-02-06T09:33:34.072Z,96406.03
2023-02-06T09:36:00.426Z,96394.94
2023-02-06T09:38:26.805Z,96401.56
2023-02-06T09:40:53.162Z,96403.34
2023-02-06T09:43:19.536Z,96387.97
2023-02-06T09:45:45.965Z,96387.00
2023-02-06T09:48:12.351Z,96395.69
2023-02-06T09:50:38.729Z,96390.69
2023-02-06T09:53:05.136Z,96399.28
2023-02-06T09:55:31.561Z,96408.75
2023-02-06T09:57:57.928Z,96417.75
2023-02-06T10:00:24.298Z,96400.16
2023-02-06T10:02:50.674Z,96403.16
2023-02-06T10:05:17.057Z,96406.97
2023-02-06T10:07:43.446Z,96397.97
2023-02-06T10:10:09.993Z,96393.25
2023-02-06T10:12:36.366Z,96388.22
2023-02-06T10:15:02.759Z,96396.00
2023-02-06T10:17:29.196Z,96393.75
2023-02-06T10:19:55.602Z,96397.47
2023-02-06T10:22:22.001Z,96403.22
2023-02-06T10:24:48.384Z,96399.41
2023-02-06T10:27:14.840Z,96395.28
2023-02-06T10:29:41.315Z,96397.09
2023-02-06T10:32:07.678Z,96400.44
2023-02-06T10:34:34.096Z,96387.97
2023-02-06T10:37:00.478Z,96390.16
2023-02-06T10:39:26.881Z,96391.69
2023-02-06T10:41:53.362Z,96380.50
2023-02-06T10:44:19.741Z,96383.75
2023-02-06T10:46:46.236Z,96378.88
2023-02-06T10:49:12.714Z,96379.53
2023-02-06T10:51:39.089Z,96382.75
2023-02-06T10:54:05.485Z,96377.63
2023-02-06T10:56:31.845Z,96377.16
2023-02-06T10:58:58.251Z,96370.69
2023-02-06T11:01:26.693Z,96368.16
2023-02-06T11:03:53.430Z,96380.56
2023-02-06T11:06:19.788Z,96368.38
2023-02-06T11:08:46.167Z,96370.91
2023-02-06T11:11:12.578Z,96363.34
2023-02-06T11:13:38.969Z,96365.31
2023-02-06T11:16:05.458Z,96367.28
2023-02-06T11:18:31.888Z,96365.88
2023-02-06T11:20:58.269Z,96352.34
2023-02-06T11:23:24.651Z,96361.16
2023-02-06T11:25:51.038Z,96359.28
2023-02-06T11:28:17.461Z,96352.56
2023-02-06T11:30:43.851Z,96347.50
2023-02-06T11:33:10.300Z,96336.53
2023-02-06T11:35:36.982Z,96340.38
2023-02-06T11:38:05.355Z,96335.81
2023-02-06T11:40:31.852Z,96342.66
2023-02-06T11:42:58.241Z,96329.19
2023-02-06T11:45:24.636Z,96325.38
2023-02-06T11:47:51.056Z,96324.03
2023-02-06T11:50:17.444Z,96321.34
2023-02-06T11:52:46.387Z,96322.06
2023-02-06T11:55:13.144Z,96320.53
2023-02-06T11:57:39.503Z,96313.53
2023-02-06T12:00:05.867Z,96317.09
2023-02-06T12:02:32.306Z,96316.09
2023-02-06T12:04:58.721Z,96313.41
2023-02-06T12:07:25.105Z,96306.38
2023-02-06T12:09:51.511Z,96314.84
2023-02-06T12:12:17.938Z,96308.75
2023-02-06T12:14:44.280Z,96302.16
2023-02-06T12:17:10.709Z,96301.00
2023-02-06T12:19:37.059Z,96303.38
2023-02-06T12:22:03.482Z,96284.06
2023-02-06T12:24:29.834Z,96285.69
2023-02-06T12:26:56.177Z,96279.84
2023-02-06T12:29:22.512Z,96284.78
2023-02-06T12:31:49.023Z,96274.91
2023-02-06T12:34:15.471Z,96275.50
2023-02-06T12:36:41.806Z,96280.53
2023-02-06T12:39:08.154Z,96277.06
2023-02-06T12:41:34.497Z,96276.34
2023-02-06T12:44:00.843Z,96273.44
2023-02-06T12:46:27.235Z,96272.56
2023-02-06T12:48:53.591Z,96272.56
2023-02-06T12:51:19.938Z,96265.13
2023-02-06T12:53:46.343Z,96272.47
2023-02-06T12:56:12.900Z,96260.84
2023-02-06T12:58:39.307Z,96274.47
2023-02-06T13:01:14.581Z,96273.66
2023-02-06T13:03:47.247Z,96268.13
2023-02-06T13:06:13.622Z,96267.84
2023-02-06T13:08:39.980Z,96264.53
2023-02-06T13:11:06.392Z,96264.16
2023-02-06T13:13:32.742Z,96269.66
2023-02-06T13:15:59.202Z,96245.13
2023-02-06T13:18:25.588Z,96268.59
2023-02-06T13:20:51.926Z,96256.75
2023-02-06T13:23:18.282Z,96253.66
2023-02-06T13:25:44.617Z,96249.28
2023-02-06T13:28:11.013Z,96256.75
2023-02-06T13:30:37.435Z,96253.47
2023-02-06T13:33:03.865Z,96244.03
2023-02-06T13:35:30.229Z,96243.38
2023-02-06T13:37:56.587Z,96240.94
2023-02-06T13:40:22.971Z,96251.69
2023-02-06T13:42:49.342Z,96255.66
2023-02-06T13:45:15.753Z,96249.03
2023-02-06T13:47:42.120Z,96245.31
2023-02-06T13:50:08.625Z,96244.25
2023-02-06T13:52:35.093Z,96244.13
2023-02-06T13:55:01.473Z,96238.53
2023-02-06T13:57:27.945Z,96244.56
2023-02-06T13:59:54.310Z,96247.44
2023-02-06T14:02:20.677Z,96247.75
2023-02-06T14:04:47.076Z,96235.03
2023-02-06T14:07:13.451Z,96243.56
2023-02-06T14:09:40.101Z,96236.81
2023-02-06T14:12:06.589Z,96230.56
2023-02-06T14:14:32.950Z,96240.66
2023-02-06T14:16:59.323Z,96244.91
2023-02-06T14:19:25.725Z,96254.16
2023-02-06T14:21:54.065Z,96246.19
2023-02-06T14:24:20.435Z,96250.59
2023-02-06T14:26:46.824Z,96252.50
2023-02-06T14:29:13.216Z,96261.59
2023-02-06T14:31:39.634Z,96254.19
2023-02-06T14:34:06.067Z,96249.31
2023-02-06T14:36:32.446Z,96248.91
2023-02-06T14:38:58.854Z,96244.09
2023-02-06T14:41:25.301Z,96240.31
2023-02-06T14:43:51.658Z,96241.28
2023-02-06T14:46:18.085Z,96240.66
2023-02-06T14:48:44.501Z,96227.72
2023-02-06T14:51:10.872Z,96232.75
2023-02-06T14:53:37.279Z,96235.75
2023-02-06T14:56:03.699Z,96235.63
2023-02-06T14:58:30.108Z,96237.44
2023-02-06T15:00:56.642Z,96225.22
2023-02-06T15:03:23.197Z,96222.19
2023-02-06T15:05:49.606Z,96224.94
2023-02-06T15:08:15.982Z,96221.56
2023-02-06T15:10:42.363Z,96230.56
2023-02-06T15:13:08.749Z,96227.91
2023-02-06T15:15:35.312Z,96215.19
2023-02-06T15:18:01.813Z,96227.47
2023-02-06T15:20:28.216Z,96225.34
2023-02-06T15:22:58.170Z,96221.94
2023-02-06T15:25:28.509Z,96225.47
2023-02-06T15:27:54.939Z,96227.00
2023-02-06T15:30:21.398Z,96229.75
2023-02-06T15:32:47.821Z,96227.81
2023-02-06T15:35:14.201Z,96221.66
2023-02-06T15:37:40.568Z,96225.94
2023-02-06T15:40:06.933Z,96232.19
2023-02-06T15:42:33.326Z,96225.22
2023-02-06T15:44:59.707Z,96236.94
2023-02-06T15:47:26.076Z,96241.41
2023-02-06T15:49:52.446Z,96242.88
2023-02-06T15:52:18.891Z,96234.31
2023-02-06T15:54:45.260Z,96236.53
2023-02-06T15:57:11.721Z,96237.44
2023-02-06T15:59:38.073Z,96230.16
2023-02-06T16:02:04.490Z,96232.06
2023-02-06T16:04:30.967Z,96230.16
2023-02-06T16:06:57.385Z,96234.00
2023-02-06T16:09:23.749Z,96240.66
2023-02-06T16:11:50.107Z,96223.94
2023-02-06T16:14:16.497Z,96222.59
2023-02-06T16:16:42.915Z,96211.81
2023-02-06T16:19:09.310Z,96213.09
2023-02-06T16:21:35.724Z,96204.13
2023-02-06T16:24:02.175Z,96216.94
2023-02-06T16:26:28.548Z,96203.50
2023-02-06T16:28:54.913Z,96197.97
2023-02-06T16:31:21.467Z,96204.13
2023-02-06T16:33:47.900Z,96203.50
2023-02-06T16:36:14.258Z,96203.31
2023-02-06T16:38:41.993Z,96196.31
2023-02-06T16:41:09.605Z,96200.97
2023-02-06T16:43:36.016Z,96209.88
2023-02-06T16:46:02.442Z,96212.03
2023-02-06T16:48:28.932Z,96214.75
2023-02-06T16:50:55.314Z,96212.84
2023-02-06T16:53:21.692Z,96211.13
2023-02-06T16:55:48.073Z,96209.16
2023-02-06T16:58:14.435Z,96211.13
2023-02-06T17:00:40.882Z,96210.50
2023-02-06T17:03:07.236Z,96213.41
2023-02-06T17:05:33.593Z,96215.28
2023-02-06T17:08:00.078Z,96210.19
2023-02-06T17:10:26.495Z,96208.69
2023-02-06T17:12:52.881Z,96207.69
2023-02-06T17:15:19.282Z,96214.03
2023-02-06T17:17:45.665Z,96201.00
2023-02-06T17:20:12.100Z,96209.47
2023-02-06T17:22:38.482Z,96216.03
2023-02-06T17:25:04.865Z,96215.75
2023-02-06T17:27:31.304Z,96201.53
2023-02-06T17:29:57.669Z,96217.84
2023-02-06T17:32:24.037Z,96221.94
2023-02-06T17:34:50.419Z,96219.31
2023-02-06T17:37:16.777Z,96230.59
2023-02-06T17:39:43.140Z,96232.47
2023-02-06T17:42:09.518Z,96234.38
2023-02-06T17:44:35.971Z,96228.09
2023-02-06T17:47:02.358Z,96238.25
2023-02-06T17:49:28.722Z,96240.44
2023-02-06T17:51:55.127Z,96235.19
2023-02-06T17:54:21.487Z,96226.59
2023-02-06T17:56:47.865Z,96228.72
2023-02-06T17:59:14.267Z,96230.91
2023-02-06T18:01:40.621Z,96227.53
2023-02-06T18:04:07.215Z,96212.00
2023-02-06T18:06:33.571Z,96205.38
2023-02-06T18:08:59.965Z,96206.47
2023-02-06T18:11:26.336Z,96203.91
2023-02-06T18:13:52.719Z,96201.75
2023-02-06T18:16:19.163Z,96192.78
2023-02-06T18:18:45.700Z,96193.41
2023-02-06T18:21:12.125Z,96192.22
2023-02-06T18:23:38.497Z,96201.47
2023-02-06T18:26:04.896Z,96191.44
2023-02-06T18:28:31.278Z,96179.66
2023-02-06T18:30:57.737Z,96188.13
2023-02-06T18:33:24.149Z,96178.13
2023-02-06T18:35:50.524Z,96185.69
2023-02-06T18:38:17.063Z,96178.59
2023-02-06T18:40:43.406Z,96167.94
2023-02-06T18:43:14.764Z,96160.13
2023-02-06T18:45:41.137Z,96159.53
2023-02-06T18:48:07.502Z,96152.44
2023-02-06T18:50:36.948Z,96153.38
2023-02-06T18:53:03.441Z,96143.66
2023-02-06T18:55:29.976Z,96146.44
2023-02-06T18:57:56.370Z,96148.44
2023-02-06T19:00:22.784Z,96134.63
2023-02-06T19:02:49.292Z,96117.69
2023-02-06T19:05:15.689Z,96128.44
2023-02-06T19:07:42.109Z,96135.38
2023-02-06T19:10:08.496Z,96142.00
2023-02-06T19:12:34.896Z,96128.16
2023-02-06T19:15:01.329Z,96104.13
2023-02-06T19:17:27.729Z,96096.47
2023-02-06T19:19:54.108Z,96105.84
2023-02-06T19:22:20.470Z,96101.38
2023-02-06T19:24:46.851Z,96087.53
2023-02-06T19:27:13.275Z,96078.47
2023-02-06T19:29:39.642Z,96075.53
2023-02-06T19:32:06.178Z,96066.78
2023-02-06T19:34:34.903Z,96081.09
2023-02-06T19:37:01.408Z,96054.91
2023-02-06T19:39:27.759Z,96066.31
2023-02-06T19:41:54.135Z,96055.53
2023-02-06T19:44:20.560Z,96055.38
2023-02-06T19:46:46.947Z,96051.06
2023-02-06T19:49:13.340Z,96045.25
2023-02-06T19:51:39.715Z,96044.16
2023-02-06T19:54:06.111Z,96052.47
2023-02-06T19:56:32.477Z,96040.63
2023-02-06T19:58:58.915Z,96024.94
2023-02-06T20:01:25.342Z,96037.25
2023-02-06T20:03:54.579Z,96033.41
2023-02-06T20:06:20.982Z,96025.72
2023-02-06T20:08:47.349Z,96021.72
2023-02-06T20:11:13.778Z,96011.59
2023-02-06T20:13:40.210Z,96016.31
2023-02-06T20:16:06.614Z,96011.41
2023-02-06T20:18:33.041Z,96004.50
2023-02-06T20:20:59.428Z,95998.50
2023-02-06T20:23:25.815Z,96011.56
2023-02-06T20:25:52.376Z,96006.34
2023-02-06T20:28:18.760Z,96003.88
2023-02-06T20:30:45.177Z,95992.38
2023-02-06T20:33:11.570Z,95986.34
2023-02-06T20:35:38.011Z,95995.44
2023-02-06T20:38:04.477Z,95989.44
2023-02-06T20:40:30.956Z,95983.44
2023-02-06T20:42:57.322Z,95983.91
2023-02-06T20:45:23.695Z,95969.63
2023-02-06T20:47:50.095Z,95975.91
2023-02-06T20:50:16.504Z,95969.16
2023-02-06T20:52:42.924Z,95963.63
2023-02-06T20:55:09.298Z,95963.78
2023-02-06T20:57:35.675Z,95974.06
2023-02-06T21:00:02.134Z,95982.84
2023-02-06T21:02:28.522Z,95980.53
2023-02-06T21:04:54.897Z,95983.44
2023-02-06T21:07:21.286Z,95992.50
2023-02-06T21:09:47.657Z,95990.22
2023-02-06T21:12:14.077Z,96001.72
2023-02-06T21:14:40.457Z,96002.50
2023-02-06T21:17:06.834Z,96002.03
2023-02-06T21:19:33.225Z,96003.28
2023-02-06T21:21:59.585Z,96010.97
2023-02-06T21:24:25.926Z,96017.72
2023-02-06T21:26:52.337Z,96002.34
2023-02-06T21:29:18.743Z,96012.63
2023-02-06T21:31:45.254Z,96010.00
2023-02-06T21:34:11.751Z,96015.56
2023-02-06T21:36:38.181Z,96018.31
2023-02-06T21:39:04.592Z,95999.44
2023-02-06T21:41:30.973Z,96007.22
2023-02-06T21:43:57.351Z,96004.59
2023-02-06T21:46:23.771Z,95984.50
2023-02-06T21:48:50.218Z,95989.41
2023-02-06T21:51:16.585Z,95987.84
2023-02-06T21:53:42.993Z,95981.88
2023-02-06T21:56:09.376Z,95980.44
2023-02-06T21:58:35.765Z,95971.25
2023-02-06T22:01:02.152Z,95968.81
2023-02-06T22:03:28.516Z,95971.88
2023-02-06T22:05:54.955Z,95971.44
2023-02-06T22:08:21.358Z,95971.91
2023-02-06T22:10:47.802Z,95975.72
2023-02-06T22:13:14.213Z,95972.50
2023-02-06T22:15:40.919Z,95968.81
2023-02-06T22:18:07.374Z,95954.06
2023-02-06T22:20:33.744Z,95943.66
2023-02-06T22:23:00.205Z,95946.25
2023-02-06T22:25:28.452Z,95937.16
2023-02-06T22:27:55.012Z,95921.19
2023-02-06T22:30:21.462Z,95929.00
2023-02-06T22:32:47.859Z,95923.94
2023-02-06T22:35:14.290Z,95919.78
2023-02-06T22:37:41.747Z,95932.84
2023-02-06T22:40:09.480Z,95932.72
2023-02-06T22:42:35.889Z,95931.97
2023-02-06T22:45:02.264Z,95931.03
2023-02-06T22:47:28.661Z,95920.00
2023-02-06T22:49:55.041Z,95922.72
2023-02-06T22:52:21.421Z,95919.97
2023-02-06T22:54:47.814Z,95894.50
2023-02-06T22:57:14.172Z,95892.94
2023-02-06T22:59:40.609Z,95880.63
2023-02-06T23:02:07.019Z,95872.66
2023-02-06T23:04:33.382Z,95875.88
2023-02-06T23:06:59.857Z,95861.44
2023-02-06T23:09:26.237Z,95853.19
2023-02-06T23:11:52.657Z,95858.66
2023-02-06T23:14:19.045Z,95864.19
2023-02-06T23:16:45.405Z,95858.38
2023-02-06T23:19:11.786Z,95886.13
2023-02-06T23:21:38.152Z,95863.13
2023-02-06T23:24:04.505Z,95860.66
2023-02-06T23:26:30.896Z,95845.94
2023-02-06T23:28:57.261Z,95853.16
2023-02-06T23:31:23.673Z,95859.44
2023-02-06T23:33:50.065Z,95862.84
2023-02-06T23:36:16.424Z,95864.53
2023-02-06T23:38:42.805Z,95854.41
2023-02-06T23:41:09.292Z,95848.13
2023-02-06T23:43:35.688Z,95827.69
2023-02-06T23:46:02.128Z,95824.47
2023-02-06T23:48:28.525Z,95820.03
2023-02-06T23:50:54.884Z,95819.41
2023-02-06T23:53:21.285Z,95816.50
2023-02-06T23:55:47.662Z,95817.25
2023-02-06T23:58:14.042Z,95822.16
